Time,TemperatureF,DewpointF,PressureIn,WindDirection,WindDirectionDegrees,WindSpeedMPH,WindSpeedGustMPH,Humidity,HourlyPrecipIn,Conditions,Clouds,dailyrainin,SoftwareType,DateUTC
2013-03-14 00:02:00,44.0,-99.9,-100.00,North,-999,0.0,0.0,-999,-99.99,,,0.00,,2013-03-14 07:02:00,
2013-03-14 00:12:00,44.0,-99.9,-100.00,North,-999,0.0,0.0,-999,-99.99,,,0.00,,2013-03-14 07:12:00,
2013-03-14 00:22:00,45.0,-99.9,-100.00,North,-999,0.0,0.0,-999,-99.99,,,0.00,,2013-03-14 07:22:00,
2013-03-14 00:32:00,44.0,-99.9,-100.00,North,-999,0.0,0.0,-999,-99.99,,,0.00,,2013-03-14 07:32:00,
2013-03-14 00:52:00,43.0,-99.9,-100.00,North,-999,0.0,0.0,-999,-99.99,,,0.00,,2013-03-14 07:52:00,
2013-03-14 01:02:00,42.0,-99.9,-100.00,North,-999,0.0,0.0,-999,-99.99,,,0.00,,2013-03-14 08:02:00,
2013-03-14 01:12:00,42.0,-99.9,-100.00,North,-999,0.0,0.0,-999,-99.99,,,0.00,,2013-03-14 08:12:00,
2013-03-14 01:22:00,43.0,-99.9,-100.00,North,-999,0.0,0.0,-999,-99.99,,,-99.99,,2013-03-14 08:22:00,
2013-03-14 01:32:00,44.0,-99.9,-100.00,North,-999,0.0,0.0,-999,-99.99,,,0.00,,2013-03-14 08:32:00,
2013-03-14 01:42:00,44.0,-99.9,-100.00,North,-999,0.0,0.0,-999,-99.99,,,0.00,,2013-03-14 08:42:00,
2013-03-14 01:52:00,44.0,-99.9,-100.00,North,-999,0.0,0.0,-999,-99.99,,,0.00,,2013-03-14 08:52:00,
2013-03-14 02:02:00,43.0,-99.9,-100.00,North,-999,0.0,0.0,-999,-99.99,,,0.00,,2013-03-14 09:02:00,
2013-03-14 02:12:00,43.0,-99.9,-100.00,North,-999,0.0,0.0,-999,-99.99,,,0.00,,2013-03-14 09:12:00,
2013-03-14 02:23:00,43.0,-99.9,-100.00,North,-999,0.0,0.0,-999,-99.99,,,0.00,,2013-03-14 09:23:00,
2013-03-14 02:32:00,42.0,-99.9,-100.00,North,-999,0.0,0.0,-999,-99.99,,,0.00,,2013-03-14 09:32:00,
2013-03-14 02:42:00,42.0,-99.9,-100.00,North,-999,0.0,0.0,-999,-99.99,,,0.00,,2013-03-14 09:42:00,
2013-03-14 02:52:00,43.0,-99.9,-100.00,North,-999,0.0,0.0,-999,-99.99,,,0.00,,2013-03-14 09:52:00,
2013-03-14 03:02:00,42.0,-99.9,-100.00,North,-999,0.0,0.0,-999,-99.99,,,0.00,,2013-03-14 10:02:00,
2013-03-14 03:12:00,42.0,-99.9,-100.00,North,-999,0.0,0.0,-999,-99.99,,,0.00,,2013-03-14 10:12:00,
2013-03-14 03:22:00,43.0,-99.9,-100.00,North,-999,0.0,0.0,-999,-99.99,,,-99.99,,2013-03-14 10:22:00,
2013-03-14 03:32:00,43.0,-99.9,-100.00,North,-999,0.0,0.0,-999,-99.99,,,0.00,,2013-03-14 10:32:00,
2013-03-14 03:42:00,43.0,-99.9,-100.00,North,-999,0.0,0.0,-999,-99.99,,,0.00,,2013-03-14 10:42:00,
2013-03-14 03:52:00,43.0,-99.9,-100.00,North,-999,0.0,0.0,-999,-99.99,,,0.00,,2013-03-14 10:52:00,
2013-03-14 04:02:00,42.0,-99.9,-100.00,North,-999,0.0,0.0,-999,-99.99,,,0.00,,2013-03-14 11:02:00,
2013-03-14 04:12:00,42.0,-99.9,-100.00,North,-999,0.0,0.0,-999,-99.99,,,0.00,,2013-03-14 11:12:00,
2013-03-14 04:23:00,42.0,-99.9,-100.00,North,-999,0.0,0.0,-999,-99.99,,,0.00,,2013-03-14 11:23:00,
2013-03-14 04:33:00,42.0,-99.9,-100.00,North,-999,0.0,0.0,-999,-99.99,,,0.00,,2013-03-14 11:33:00,
2013-03-14 04:43:00,42.0,-99.9,-100.00,North,-999,0.0,0.0,-999,-99.99,,,0.00,,2013-03-14 11:43:00,
2013-03-14 04:53:00,41.0,-99.9,-100.00,North,-999,0.0,0.0,-999,-99.99,,,0.00,,2013-03-14 11:53:00,
2013-03-14 05:02:00,41.0,-99.9,-100.00,North,-999,0.0,0.0,-999,-99.99,,,0.00,,2013-03-14 12:02:00,
2013-03-14 05:12:00,41.0,-99.9,-100.00,North,-999,0.0,0.0,-999,-99.99,,,0.00,,2013-03-14 12:12:00,
2013-03-14 05:22:00,41.0,-99.9,-100.00,North,-999,0.0,0.0,-999,-99.99,,,0.00,,2013-03-14 12:22:00,
2013-03-14 05:33:00,41.0,-99.9,-100.00,North,-999,0.0,0.0,-999,-99.99,,,0.00,,2013-03-14 12:33:00,
2013-03-14 05:43:00,41.0,-99.9,-100.00,North,-999,0.0,0.0,-999,-99.99,,,0.00,,2013-03-14 12:43:00,
2013-03-14 05:52:00,41.0,-99.9,-100.00,North,-999,0.0,0.0,-999,-99.99,,,0.00,,2013-03-14 12:52:00,
2013-03-14 06:03:00,40.0,-99.9,-100.00,North,-999,0.0,0.0,-999,-99.99,,,0.00,,2013-03-14 13:03:00,
2013-03-14 06:13:00,40.0,-99.9,-100.00,North,-999,0.0,0.0,-999,-99.99,,,0.00,,2013-03-14 13:13:00,
2013-03-14 06:22:00,40.0,-99.9,-100.00,North,-999,0.0,0.0,-999,-99.99,,,0.00,,2013-03-14 13:22:00,
2013-03-14 06:33:00,41.0,-99.9,-100.00,North,-999,0.0,0.0,-999,-99.99,,,0.00,,2013-03-14 13:33:00,
2013-03-14 06:43:00,41.0,-99.9,-100.00,North,-999,0.0,0.0,-999,-99.99,,,0.00,,2013-03-14 13:43:00,
2013-03-14 06:53:00,40.0,-99.9,-100.00,North,-999,0.0,0.0,-999,-99.99,,,0.00,,2013-03-14 13:53:00,
2013-03-14 07:03:00,39.0,-99.9,-100.00,North,-999,0.0,0.0,-999,-99.99,,,0.00,,2013-03-14 14:03:00,
2013-03-14 07:12:00,39.0,-99.9,-100.00,North,-999,0.0,0.0,-999,-99.99,,,0.00,,2013-03-14 14:12:00,
2013-03-14 07:22:00,39.0,-99.9,-100.00,North,-999,0.0,0.0,-999,-99.99,,,0.00,,2013-03-14 14:22:00,
2013-03-14 07:32:00,39.0,-99.9,-100.00,North,-999,0.0,0.0,-999,-99.99,,,0.00,,2013-03-14 14:32:00,
2013-03-14 07:40:00,39.0,-99.9,-100.00,North,-999,0.0,0.0,-999,-99.99,,,-99.99,,2013-03-14 14:40:00,
2013-03-14 07:43:00,39.0,-99.9,-100.00,North,-999,0.0,0.0,-999,-99.99,,,0.00,,2013-03-14 14:43:00,
2013-03-14 07:53:00,38.0,-99.9,-100.00,North,-999,0.0,0.0,-999,-99.99,,,0.00,,2013-03-14 14:53:00,
2013-03-14 08:02:00,39.0,-99.9,-100.00,North,-999,0.0,0.0,-999,-99.99,,,0.00,,2013-03-14 15:02:00,
2013-03-14 08:12:00,39.0,-99.9,-100.00,North,-999,0.0,0.0,-999,-99.99,,,0.00,,2013-03-14 15:12:00,
2013-03-14 08:22:00,39.0,-99.9,-100.00,North,-999,0.0,0.0,-999,-99.99,,,-99.99,,2013-03-14 15:22:00,
2013-03-14 08:33:00,39.0,-99.9,-100.00,North,-999,0.0,0.0,-999,-99.99,,,-99.99,,2013-03-14 15:33:00,
2013-03-14 10:03:00,43.0,-99.9,-100.00,North,-999,0.0,0.0,-999,-99.99,,,0.00,,2013-03-14 17:03:00,
2013-03-14 10:13:00,43.0,-99.9,-100.00,North,-999,0.0,0.0,-999,-99.99,,,0.00,,2013-03-14 17:13:00,
2013-03-14 10:24:00,45.0,-99.9,-100.00,North,-999,0.0,0.0,-999,-99.99,,,0.00,,2013-03-14 17:24:00,
2013-03-14 10:33:00,48.0,-99.9,-100.00,North,-999,0.0,0.0,-999,-99.99,,,0.00,,2013-03-14 17:33:00,
2013-03-14 10:42:00,48.0,-99.9,-100.00,North,-999,0.0,0.0,-999,-99.99,,,0.00,,2013-03-14 17:42:00,
2013-03-14 10:53:00,49.0,-99.9,-100.00,North,-999,0.0,0.0,-999,-99.99,,,0.00,,2013-03-14 17:53:00,
2013-03-14 11:03:00,50.0,-99.9,-100.00,North,-999,0.0,0.0,-999,-99.99,,,0.00,,2013-03-14 18:03:00,
2013-03-14 11:13:00,50.0,-99.9,-100.00,North,-999,0.0,0.0,-999,-99.99,,,0.00,,2013-03-14 18:13:00,
2013-03-14 11:23:00,51.0,-99.9,-100.00,SW,225,9.0,9.0,-999,-99.99,,,0.00,,2013-03-14 18:23:00,
2013-03-14 11:33:00,49.0,-99.9,-100.00,SW,225,3.0,3.0,-999,-99.99,,,0.00,,2013-03-14 18:33:00,
2013-03-14 11:40:00,51.0,-99.9,-100.00,SE,135,1.0,1.0,-999,-99.99,,,0.00,,2013-03-14 18:40:00,
2013-03-14 11:43:00,49.0,-99.9,-100.00,SW,225,3.0,3.0,-999,-99.99,,,0.00,,2013-03-14 18:43:00,
2013-03-14 11:53:00,51.0,-99.9,-100.00,SW,225,14.0,14.0,-999,-99.99,,,0.00,,2013-03-14 18:53:00,
2013-03-14 12:03:00,51.0,-99.9,-100.00,SW,225,19.0,19.0,-999,-99.99,,,0.00,,2013-03-14 19:03:00,
2013-03-14 12:12:00,51.0,-99.9,-100.00,SW,225,19.0,19.0,-999,-99.99,,,0.00,,2013-03-14 19:12:00,
2013-03-14 12:23:00,51.0,-99.9,-100.00,SE,135,1.0,1.0,-999,-99.99,,,0.00,,2013-03-14 19:23:00,
2013-03-14 12:32:00,51.0,-99.9,-100.00,SE,135,1.0,1.0,-999,-99.99,,,0.00,,2013-03-14 19:32:00,
2013-03-14 13:32:00,55.0,-99.9,-100.00,SW,225,10.0,10.0,-999,-99.99,,,0.00,,2013-03-14 20:32:00,
2013-03-14 13:43:00,55.0,-99.9,-100.00,SW,225,10.0,10.0,-999,-99.99,,,0.00,,2013-03-14 20:43:00,
2013-03-14 13:53:00,55.0,-99.9,-100.00,North,-999,0.0,0.0,-999,-99.99,,,0.00,,2013-03-14 20:53:00,
2013-03-14 14:03:00,53.0,-99.9,-100.00,SW,225,12.0,12.0,-999,-99.99,,,0.00,,2013-03-14 21:03:00,
2013-03-14 14:13:00,53.0,-99.9,-100.00,SW,225,12.0,12.0,-999,-99.99,,,0.00,,2013-03-14 21:13:00,
2013-03-14 14:23:00,53.0,-99.9,-100.00,SW,225,3.0,3.0,-999,-99.99,,,0.00,,2013-03-14 21:23:00,
2013-03-14 14:33:00,56.0,-99.9,-100.00,SW,225,8.0,8.0,-999,-99.99,,,0.00,,2013-03-14 21:33:00,
2013-03-14 14:44:00,56.0,-99.9,-100.00,SW,225,8.0,8.0,-999,-99.99,,,0.00,,2013-03-14 21:44:00,
2013-03-14 14:53:00,57.0,-99.9,-100.00,SW,225,10.0,10.0,-999,-99.99,,,0.00,,2013-03-14 21:53:00,
2013-03-14 15:04:00,56.0,-99.9,-100.00,South,180,10.0,10.0,-999,-99.99,,,0.00,,2013-03-14 22:04:00,
2013-03-14 15:13:00,56.0,-99.9,-100.00,South,180,10.0,10.0,-999,-99.99,,,0.00,,2013-03-14 22:13:00,
2013-03-14 15:23:00,55.0,-99.9,-100.00,SW,225,19.0,19.0,-999,-99.99,,,0.00,,2013-03-14 22:23:00,
2013-03-14 15:33:00,52.0,-99.9,-100.00,SW,225,14.0,14.0,-999,-99.99,,,0.00,,2013-03-14 22:33:00,
2013-03-14 15:42:00,52.0,-99.9,-100.00,SW,225,14.0,14.0,-999,-99.99,,,0.00,,2013-03-14 22:42:00,
2013-03-14 15:53:00,52.0,-99.9,-100.00,SW,225,16.0,16.0,-999,-99.99,,,0.00,,2013-03-14 22:53:00,
2013-03-14 16:03:00,53.0,-99.9,-100.00,South,180,16.0,16.0,-999,-99.99,,,0.00,,2013-03-14 23:03:00,
2013-03-14 16:12:00,53.0,-99.9,-100.00,South,180,16.0,16.0,-999,-99.99,,,0.00,,2013-03-14 23:12:00,
2013-03-14 16:23:00,54.0,-99.9,-100.00,SW,225,8.0,8.0,-999,-99.99,,,0.00,,2013-03-14 23:23:00,
2013-03-14 16:33:00,53.0,-99.9,-100.00,SW,225,5.0,5.0,-999,-99.99,,,0.00,,2013-03-14 23:33:00,
2013-03-14 16:43:00,53.0,-99.9,-100.00,SW,225,5.0,5.0,-999,-99.99,,,0.00,,2013-03-14 23:43:00,
2013-03-14 16:54:00,53.0,-99.9,-100.00,South,180,17.0,17.0,-999,-99.99,,,0.00,,2013-03-14 23:54:00,
2013-03-14 17:02:00,52.0,-99.9,-100.00,SW,225,20.0,20.0,-999,-99.99,,,0.00,,2013-03-15 00:02:00,
2013-03-14 17:12:00,52.0,-99.9,-100.00,SW,225,20.0,20.0,-999,-99.99,,,0.00,,2013-03-15 00:12:00,
2013-03-14 17:23:00,53.0,-99.9,-100.00,SW,225,10.0,10.0,-999,-99.99,,,0.00,,2013-03-15 00:23:00,
2013-03-14 17:33:00,52.0,-99.9,-100.00,SW,225,3.0,3.0,-999,-99.99,,,0.00,,2013-03-15 00:33:00,
2013-03-14 17:43:00,52.0,-99.9,-100.00,SW,225,3.0,3.0,-999,-99.99,,,0.00,,2013-03-15 00:43:00,
2013-03-14 17:53:00,52.0,-99.9,-100.00,SW,225,7.0,7.0,-999,-99.99,,,0.00,,2013-03-15 00:53:00,
2013-03-14 18:03:00,49.0,-99.9,-100.00,SW,225,11.0,11.0,-999,-99.99,,,0.00,,2013-03-15 01:03:00,
2013-03-14 18:12:00,49.0,-99.9,-100.00,SW,225,11.0,11.0,-999,-99.99,,,0.00,,2013-03-15 01:12:00,
2013-03-14 18:23:00,48.0,-99.9,-100.00,South,180,2.0,2.0,-999,-99.99,,,0.00,,2013-03-15 01:23:00,
2013-03-14 18:33:00,48.0,-99.9,-100.00,North,-999,0.0,0.0,-999,-99.99,,,0.00,,2013-03-15 01:33:00,
2013-03-14 18:43:00,48.0,-99.9,-100.00,North,-999,0.0,0.0,-999,-99.99,,,0.00,,2013-03-15 01:43:00,
2013-03-14 18:53:00,47.0,-99.9,-100.00,North,-999,0.0,0.0,-999,-99.99,,,0.00,,2013-03-15 01:53:00,
2013-03-14 19:03:00,45.0,-99.9,-100.00,SW,225,19.0,19.0,-999,-99.99,,,0.00,,2013-03-15 02:03:00,
2013-03-14 19:12:00,45.0,-99.9,-100.00,SW,225,19.0,19.0,-999,-99.99,,,0.00,,2013-03-15 02:12:00,
2013-03-14 19:22:00,45.0,-99.9,-100.00,SW,225,12.0,12.0,-999,-99.99,,,0.00,,2013-03-15 02:22:00,
2013-03-14 19:33:00,43.0,-99.9,-100.00,SW,225,5.0,5.0,-999,-99.99,,,0.00,,2013-03-15 02:33:00,
2013-03-14 19:42:00,43.0,-99.9,-100.00,SW,225,5.0,5.0,-999,-99.99,,,0.00,,2013-03-15 02:42:00,
2013-03-14 19:52:00,43.0,-99.9,-100.00,North,-999,0.0,0.0,-999,-99.99,,,0.00,,2013-03-15 02:52:00,
2013-03-14 20:02:00,42.0,-99.9,-100.00,South,180,5.0,5.0,-999,-99.99,,,0.00,,2013-03-15 03:02:00,
2013-03-14 20:13:00,42.0,-99.9,-100.00,South,180,5.0,5.0,-999,-99.99,,,0.00,,2013-03-15 03:13:00,
2013-03-14 20:22:00,42.0,-99.9,-100.00,North,-999,0.0,0.0,-999,-99.99,,,0.00,,2013-03-15 03:22:00,
2013-03-14 20:33:00,41.0,-99.9,-100.00,North,-999,0.0,0.0,-999,-99.99,,,0.00,,2013-03-15 03:33:00,
2013-03-14 20:43:00,41.0,-99.9,-100.00,North,-999,0.0,0.0,-999,-99.99,,,0.00,,2013-03-15 03:43:00,
2013-03-14 20:53:00,41.0,-99.9,-100.00,South,180,5.0,5.0,-999,-99.99,,,0.00,,2013-03-15 03:53:00,
2013-03-14 21:03:00,40.0,-99.9,-100.00,SW,225,2.0,2.0,-999,-99.99,,,0.00,,2013-03-15 04:03:00,
2013-03-14 21:13:00,40.0,-99.9,-100.00,SW,225,2.0,2.0,-999,-99.99,,,0.00,,2013-03-15 04:13:00,
2013-03-14 21:23:00,40.0,-99.9,-100.00,SW,225,10.0,10.0,-999,-99.99,,,0.00,,2013-03-15 04:23:00,
2013-03-14 21:33:00,40.0,-99.9,-100.00,North,-999,0.0,0.0,-999,-99.99,,,0.00,,2013-03-15 04:33:00,
2013-03-14 21:43:00,40.0,-99.9,-100.00,North,-999,0.0,0.0,-999,-99.99,,,0.00,,2013-03-15 04:43:00,
2013-03-14 21:53:00,40.0,-99.9,-100.00,North,-999,0.0,0.0,-999,-99.99,,,0.00,,2013-03-15 04:53:00,
2013-03-14 22:03:00,38.0,-99.9,-100.00,North,-999,0.0,0.0,-999,-99.99,,,0.00,,2013-03-15 05:03:00,
2013-03-14 22:12:00,38.0,-99.9,-100.00,North,-999,0.0,0.0,-999,-99.99,,,0.00,,2013-03-15 05:12:00,
2013-03-14 22:23:00,38.0,-99.9,-100.00,North,-999,0.0,0.0,-999,-99.99,,,0.00,,2013-03-15 05:23:00,
2013-03-14 22:33:00,38.0,-99.9,-100.00,North,-999,0.0,0.0,-999,-99.99,,,0.00,,2013-03-15 05:33:00,
2013-03-14 22:42:00,38.0,-99.9,-100.00,North,-999,0.0,0.0,-999,-99.99,,,0.00,,2013-03-15 05:42:00,
2013-03-14 22:53:00,39.0,-99.9,-100.00,North,-999,0.0,0.0,-999,-99.99,,,0.00,,2013-03-15 05:53:00,
2013-03-14 23:02:00,38.0,-99.9,-100.00,SW,225,6.0,6.0,-999,-99.99,,,0.00,,2013-03-15 06:02:00,
2013-03-14 23:13:00,38.0,-99.9,-100.00,SW,225,6.0,6.0,-999,-99.99,,,0.00,,2013-03-15 06:13:00,
2013-03-14 23:23:00,38.0,-99.9,-100.00,North,-999,0.0,0.0,-999,-99.99,,,0.00,,2013-03-15 06:23:00,
2013-03-14 23:33:00,39.0,-99.9,-100.00,North,-999,0.0,0.0,-999,-99.99,,,0.00,,2013-03-15 06:33:00,
2013-03-14 23:43:00,39.0,-99.9,-100.00,North,-999,0.0,0.0,-999,-99.99,,,0.00,,2013-03-15 06:43:00,
2013-03-14 23:53:00,38.0,-99.9,-100.00,West,270,3.0,3.0,-999,-99.99,,,0.00,,2013-03-15 06:53:00,